Time;durP1;ratioP1;P1;durP2;ratioP2;P2;SDS_P1;SDS_P2;PMS_P1;PMS_P2;Temp;Humidity;BMP_temperature;BMP_pressure;BME280_temperature;BME280_humidity;BME280_pressure;Samples;Min_cycle;Max_cycle;Signal;HPM_P1;HPM_P2
2022/02/22 00:01:23;;;;;;;18.17;5.32;;;9.50;66.70;;;;;;5067316;28;20067;-78
2022/02/22 00:03:50;;;;;;;20.30;6.38;;;9.50;66.70;;;;;;5068424;28;20035;-76
2022/02/22 00:06:16;;;;;;;22.58;8.20;;;9.60;66.90;;;;;;5068642;28;20021;-78
2022/02/22 00:08:42;;;;;;;19.80;5.25;;;9.60;66.90;;;;;;5068867;28;20024;-77
2022/02/22 00:11:08;;;;;;;22.70;6.22;;;9.60;66.90;;;;;;5068374;28;20033;-77
2022/02/22 00:13:34;;;;;;;20.23;6.20;;;9.60;66.90;;;;;;5068086;28;20056;-80
2022/02/22 00:16:00;;;;;;;18.35;5.43;;;9.70;67.10;;;;;;5067606;28;20035;-77
2022/02/22 00:18:27;;;;;;;24.88;6.40;;;9.70;67.10;;;;;;5066826;28;20032;-78
2022/02/22 00:20:54;;;;;;;21.27;7.03;;;9.70;67.10;;;;;;5068164;28;20611;-77
2022/02/22 00:23:20;;;;;;;19.50;6.00;;;9.70;67.00;;;;;;5066823;28;20032;-77
2022/02/22 00:25:47;;;;;;;14.30;5.15;;;9.70;67.00;;;;;;5066685;28;20035;-77
2022/02/22 00:28:13;;;;;;;22.85;6.40;;;9.70;67.00;;;;;;5068150;28;20132;-76
2022/02/22 00:30:40;;;;;;;27.05;6.05;;;9.70;66.90;;;;;;5066761;28;20051;-77
2022/02/22 00:33:06;;;;;;;20.73;5.68;;;9.80;67.10;;;;;;5067549;28;20079;-77
2022/02/22 00:35:32;;;;;;;20.60;5.57;;;9.80;67.10;;;;;;5068274;28;20028;-76
2022/02/22 00:37:58;;;;;;;21.33;6.03;;;9.80;67.10;;;;;;5068603;28;20032;-78
2022/02/22 00:40:24;;;;;;;16.35;5.45;;;9.80;67.10;;;;;;5068364;28;20029;-77
2022/02/22 00:42:51;;;;;;;22.77;4.60;;;9.80;67.10;;;;;;5068794;28;20036;-78
2022/02/22 00:45:17;;;;;;;24.48;6.93;;;9.80;67.10;;;;;;5068005;28;20123;-78
2022/02/22 00:47:43;;;;;;;23.48;5.57;;;9.80;67.10;;;;;;5068228;28;20043;-77
2022/02/22 00:50:10;;;;;;;14.50;4.97;;;9.80;67.10;;;;;;5067785;28;20103;-78
2022/02/22 00:52:36;;;;;;;19.17;5.68;;;9.90;67.20;;;;;;5068226;28;20024;-77
2022/02/22 00:55:03;;;;;;;20.58;7.18;;;9.90;67.20;;;;;;5067773;28;20048;-77
2022/02/22 00:57:29;;;;;;;19.10;5.43;;;9.90;67.20;;;;;;5067745;28;20051;-76
2022/02/22 00:59:55;;;;;;;19.05;6.32;;;9.90;67.20;;;;;;5067336;28;20383;-77
2022/02/22 01:02:21;;;;;;;19.52;5.25;;;9.90;67.20;;;;;;5067352;28;20132;-76
2022/02/22 01:04:50;;;;;;;22.15;5.22;;;9.90;67.20;;;;;;5067621;28;20036;-77
2022/02/22 01:07:17;;;;;;;20.65;5.00;;;10.00;67.40;;;;;;5067478;28;20028;-78
2022/02/22 01:09:44;;;;;;;18.08;5.78;;;10.00;67.40;;;;;;5067782;28;20197;-77
2022/02/22 01:12:11;;;;;;;21.30;5.30;;;10.00;67.30;;;;;;5067217;28;20363;-77
2022/02/22 01:14:38;;;;;;;20.83;5.28;;;10.00;67.30;;;;;;5070163;28;20050;-78
2022/02/22 01:17:04;;;;;;;25.45;5.07;;;10.00;67.30;;;;;;5080624;28;20032;-77
2022/02/22 01:19:31;;;;;;;19.10;5.18;;;10.10;67.50;;;;;;5078550;28;20151;-77
2022/02/22 01:21:57;;;;;;;25.00;6.32;;;10.00;67.30;;;;;;5068384;28;20123;-79
2022/02/22 01:24:23;;;;;;;21.10;4.90;;;10.10;67.40;;;;;;5067914;28;20033;-77
2022/02/22 01:26:50;;;;;;;18.92;4.85;;;10.10;67.40;;;;;;5050050;28;20033;-77
2022/02/22 01:29:16;;;;;;;22.60;5.85;;;10.10;67.40;;;;;;5067499;28;20021;-77
2022/02/22 01:31:42;;;;;;;21.77;5.88;;;10.10;67.30;;;;;;5067600;28;20020;-77
2022/02/22 01:34:09;;;;;;;16.00;4.38;;;10.10;67.30;;;;;;5067577;28;20056;-78
2022/02/22 01:36:36;;;;;;;19.55;4.78;;;10.20;67.50;;;;;;5049730;28;20029;-78
2022/02/22 01:39:04;;;;;;;14.13;4.65;;;10.10;67.30;;;;;;5066499;28;20094;-77
2022/02/22 01:41:32;;;;;;;17.17;4.55;;;10.20;67.50;;;;;;5067515;28;20036;-78
2022/02/22 01:43:59;;;;;;;16.83;5.72;;;10.20;67.50;;;;;;5067379;28;20032;-77
2022/02/22 01:46:25;;;;;;;16.55;4.80;;;10.20;67.50;;;;;;5067178;28;20033;-77
2022/02/22 01:48:54;;;;;;;18.80;4.47;;;10.20;67.50;;;;;;5069537;28;20511;-77
2022/02/22 01:51:21;;;;;;;17.73;4.07;;;10.20;67.50;;;;;;5071420;28;20025;-77
2022/02/22 01:53:47;;;;;;;17.05;4.28;;;10.20;67.50;;;;;;5071047;28;20134;-78
2022/02/22 01:56:16;;;;;;;15.27;5.93;;;10.20;67.50;;;;;;5069658;28;20028;-77
2022/02/22 01:58:42;;;;;;;16.33;4.50;;;10.20;67.50;;;;;;5070682;28;20110;-77
2022/02/22 02:01:09;;;;;;;14.00;4.15;;;10.20;67.50;;;;;;5071108;28;20032;-76
2022/02/22 02:03:36;;;;;;;14.63;4.13;;;10.20;67.60;;;;;;5071205;28;20505;-77
2022/02/22 02:06:02;;;;;;;19.75;4.53;;;10.20;67.60;;;;;;5070419;28;20511;-78
2022/02/22 02:08:29;;;;;;;13.95;4.03;;;10.20;67.60;;;;;;5069323;28;20502;-76
2022/02/22 02:10:55;;;;;;;19.80;4.18;;;10.30;67.70;;;;;;5070687;28;20028;-77
2022/02/22 02:13:22;;;;;;;18.95;4.88;;;10.30;67.70;;;;;;5070942;28;20102;-77
2022/02/22 02:15:48;;;;;;;18.55;3.88;;;10.30;67.70;;;;;;5070272;28;20024;-76
2022/02/22 02:18:14;;;;;;;15.93;3.95;;;10.30;67.70;;;;;;5069409;28;20063;-76
2022/02/22 02:20:40;;;;;;;15.82;4.72;;;10.30;67.70;;;;;;5070772;28;20482;-77
2022/02/22 02:23:07;;;;;;;16.13;4.40;;;10.30;67.70;;;;;;5070984;28;20032;-77
2022/02/22 02:25:33;;;;;;;14.63;4.22;;;10.30;67.70;;;;;;5071282;28;20057;-77
2022/02/22 02:27:59;;;;;;;12.55;3.40;;;10.30;67.70;;;;;;5071179;28;20032;-77
2022/02/22 02:30:25;;;;;;;12.55;4.10;;;10.30;67.80;;;;;;5070212;28;20075;-78
2022/02/22 02:32:51;;;;;;;12.48;4.10;;;10.30;67.80;;;;;;5070143;28;20028;-77
2022/02/22 02:35:18;;;;;;;13.63;4.00;;;10.30;67.80;;;;;;5070097;28;20556;-77
2022/02/22 02:37:44;;;;;;;8.93;3.30;;;10.30;67.80;;;;;;5070362;28;20474;-76
2022/02/22 02:40:11;;;;;;;13.85;4.07;;;10.30;67.90;;;;;;5070014;28;20570;-76
2022/02/22 02:42:42;;;;;;;13.48;3.67;;;10.30;67.90;;;;;;5070492;28;20294;-77
2022/02/22 02:45:10;;;;;;;12.27;4.53;;;10.30;67.90;;;;;;5069082;28;20033;-78
2022/02/22 02:47:36;;;;;;;9.65;3.17;;;10.40;68.20;;;;;;5099557;22;20142;-81
2022/02/22 02:50:05;;;;;;;12.85;4.35;;;10.40;68.20;;;;;;5093359;28;20031;-87
2022/02/22 02:52:32;;;;;;;8.57;2.70;;;10.40;68.20;;;;;;5093587;28;20474;-87
2022/02/22 02:54:58;;;;;;;11.85;2.90;;;10.40;68.20;;;;;;5093708;28;20031;-87
2022/02/22 02:57:26;;;;;;;8.70;3.55;;;10.40;68.20;;;;;;5075460;28;20028;-84
2022/02/22 02:59:52;;;;;;;11.70;3.38;;;10.40;68.30;;;;;;5073590;28;20089;-84
2022/02/22 03:02:18;;;;;;;14.15;3.92;;;10.40;68.30;;;;;;5093352;28;20602;-83
2022/02/22 03:04:44;;;;;;;10.45;3.13;;;10.40;68.30;;;;;;5093375;28;20119;-83
2022/02/22 03:07:11;;;;;;;10.32;3.17;;;10.40;68.30;;;;;;5075060;28;20035;-83
2022/02/22 03:09:36;;;;;;;8.57;2.80;;;10.50;68.50;;;;;;5075151;28;20051;-83
2022/02/22 03:12:03;;;;;;;9.82;2.80;;;10.50;68.50;;;;;;5092740;28;20486;-83
2022/02/22 03:14:29;;;;;;;9.27;2.83;;;10.50;68.50;;;;;;5093079;28;20031;-81
2022/02/22 03:16:55;;;;;;;10.85;2.70;;;10.50;68.50;;;;;;5092702;28;20032;-81
2022/02/22 03:19:21;;;;;;;11.93;2.60;;;10.50;68.50;;;;;;5074903;28;20028;-82
2022/02/22 03:21:47;;;;;;;7.22;1.88;;;10.50;68.60;;;;;;5092451;28;20036;-81
2022/02/22 03:24:13;;;;;;;9.98;2.40;;;10.50;68.60;;;;;;5092640;28;20036;-82
2022/02/22 03:26:39;;;;;;;9.15;3.60;;;10.50;68.60;;;;;;5092802;28;20040;-82
2022/02/22 03:29:05;;;;;;;9.32;2.53;;;10.50;68.70;;;;;;5074564;28;20040;-83
2022/02/22 03:31:32;;;;;;;10.35;3.28;;;10.50;68.70;;;;;;5074346;28;20020;-82
2022/02/22 03:33:59;;;;;;;6.20;1.90;;;10.50;68.70;;;;;;5081976;28;20124;-80
2022/02/22 03:36:25;;;;;;;7.78;2.33;;;10.50;68.80;;;;;;5072813;28;20024;-81
2022/02/22 03:38:52;;;;;;;6.13;1.80;;;10.50;68.90;;;;;;5054734;28;20529;-80
2022/02/22 03:41:18;;;;;;;7.72;2.10;;;10.50;68.80;;;;;;5055818;28;20033;-80
2022/02/22 03:43:44;;;;;;;4.13;1.85;;;10.50;68.90;;;;;;5060547;28;20124;-80
2022/02/22 03:46:11;;;;;;;8.20;2.50;;;10.50;68.90;;;;;;5074759;28;20076;-79
2022/02/22 03:48:37;;;;;;;5.10;2.17;;;10.60;69.10;;;;;;5057101;28;20028;-79
2022/02/22 03:51:03;;;;;;;6.65;2.83;;;10.60;69.10;;;;;;5081848;28;20028;-79
2022/02/22 03:53:29;;;;;;;6.38;2.90;;;10.60;69.20;;;;;;5059966;28;20055;-79
2022/02/22 03:55:55;;;;;;;5.95;2.25;;;10.60;69.10;;;;;;5076188;28;20086;-78
2022/02/22 03:58:21;;;;;;;4.35;2.17;;;10.60;69.20;;;;;;5072009;28;20025;-79
2022/02/22 04:00:48;;;;;;;5.97;2.40;;;10.60;69.20;;;;;;5054439;28;20031;-79
2022/02/22 04:03:14;;;;;;;7.82;1.70;;;10.60;69.20;;;;;;5053681;28;20524;-78
2022/02/22 04:05:42;;;;;;;6.00;2.28;;;10.60;69.20;;;;;;5071802;28;20233;-80
2022/02/22 04:08:08;;;;;;;7.63;2.20;;;10.70;69.40;;;;;;5053805;28;20066;-80
2022/02/22 04:10:34;;;;;;;6.00;1.75;;;10.60;69.20;;;;;;5071101;28;20102;-80
2022/02/22 04:13:00;;;;;;;3.17;1.17;;;10.70;69.40;;;;;;5071701;28;20031;-81
2022/02/22 04:15:27;;;;;;;4.30;1.45;;;10.70;69.40;;;;;;5071635;28;20441;-80
2022/02/22 04:17:53;;;;;;;4.40;1.38;;;10.70;69.40;;;;;;5053640;28;20452;-79
2022/02/22 04:20:19;;;;;;;5.57;1.90;;;10.70;69.50;;;;;;5071448;28;20379;-79
2022/02/22 04:22:45;;;;;;;5.00;1.42;;;10.70;69.50;;;;;;5071072;28;20139;-78
2022/02/22 04:25:11;;;;;;;5.55;1.95;;;10.70;69.50;;;;;;5071159;28;20068;-78
2022/02/22 04:27:38;;;;;;;5.25;1.48;;;10.70;69.60;;;;;;5053241;28;20024;-78
2022/02/22 04:30:06;;;;;;;3.78;1.25;;;10.70;69.60;;;;;;5070788;28;20036;-80
2022/02/22 04:32:33;;;;;;;7.15;2.60;;;10.70;69.60;;;;;;5053513;28;20119;-79
2022/02/22 04:34:59;;;;;;;4.93;1.40;;;10.70;69.70;;;;;;5070940;28;20029;-79
2022/02/22 04:37:25;;;;;;;6.97;1.67;;;10.70;69.70;;;;;;5071074;28;20093;-80
2022/02/22 04:39:51;;;;;;;4.65;1.40;;;10.80;69.90;;;;;;5071021;28;20032;-80
2022/02/22 04:42:18;;;;;;;8.23;1.52;;;10.80;70.00;;;;;;5070777;28;20036;-80
2022/02/22 04:44:45;;;;;;;7.22;2.00;;;10.80;70.00;;;;;;5071150;28;20556;-80
2022/02/22 04:47:11;;;;;;;6.30;2.08;;;10.80;70.00;;;;;;5070789;28;20115;-79
2022/02/22 04:49:37;;;;;;;3.83;1.70;;;10.80;70.00;;;;;;5071244;28;20021;-79
2022/02/22 04:52:04;;;;;;;7.97;2.35;;;10.80;70.00;;;;;;5071742;28;20029;-79
2022/02/22 04:54:31;;;;;;;7.20;1.55;;;10.80;70.00;;;;;;5036653;28;20020;-79
2022/02/22 04:56:57;;;;;;;8.88;2.10;;;10.80;70.00;;;;;;5071207;28;20035;-80
2022/02/22 04:59:26;;;;;;;8.02;2.25;;;10.90;70.10;;;;;;5052448;28;20048;-78
2022/02/22 05:01:52;;;;;;;9.10;2.88;;;10.90;70.10;;;;;;5070643;28;20394;-78
2022/02/22 05:04:19;;;;;;;13.55;3.17;;;10.90;70.10;;;;;;5070718;28;20035;-79
2022/02/22 05:06:45;;;;;;;11.90;2.60;;;10.90;70.10;;;;;;5070325;28;20111;-79
2022/02/22 05:09:11;;;;;;;9.10;2.50;;;10.90;70.10;;;;;;5070818;28;20547;-78
2022/02/22 05:11:37;;;;;;;7.93;2.05;;;11.00;70.30;;;;;;5052526;28;20107;-79
2022/02/22 05:14:03;;;;;;;13.65;2.80;;;11.00;70.30;;;;;;5052479;28;20035;-78
2022/02/22 05:16:35;;;;;;;9.70;2.65;;;11.00;70.30;;;;;;5070445;28;20036;-79
2022/02/22 05:19:02;;;;;;;14.98;4.30;;;11.00;70.40;;;;;;5070978;28;20119;-78
2022/02/22 05:21:29;;;;;;;9.20;3.22;;;11.00;70.40;;;;;;5052664;28;20134;-80
2022/02/22 05:23:55;;;;;;;13.02;2.67;;;11.00;70.40;;;;;;5072894;28;20131;-80
2022/02/22 05:26:21;;;;;;;8.85;2.22;;;11.00;70.40;;;;;;5076035;28;20380;-78
2022/02/22 05:28:47;;;;;;;11.13;3.22;;;11.00;70.40;;;;;;5058637;28;20035;-78
2022/02/22 05:31:16;;;;;;;10.90;3.92;;;11.00;70.50;;;;;;5075190;28;20437;-78
2022/02/22 05:33:44;;;;;;;17.58;3.25;;;11.00;70.50;;;;;;5079808;28;20122;-77
2022/02/22 05:36:10;;;;;;;14.27;2.85;;;11.00;70.50;;;;;;5095940;28;20054;-78
2022/02/22 05:38:36;;;;;;;9.80;2.72;;;11.10;70.70;;;;;;5077200;28;20127;-78
2022/02/22 05:41:02;;;;;;;17.55;5.63;;;11.10;70.70;;;;;;5076631;28;20127;-79
2022/02/22 05:43:28;;;;;;;11.25;2.70;;;11.10;70.70;;;;;;5094816;28;20066;-77
2022/02/22 05:45:55;;;;;;;12.98;3.42;;;11.00;70.60;;;;;;5094450;28;20150;-77
2022/02/22 05:48:22;;;;;;;18.17;5.55;;;11.10;70.80;;;;;;5082316;28;20048;-78
2022/02/22 05:50:48;;;;;;;12.73;3.45;;;11.10;70.80;;;;;;5060813;28;20036;-77
2022/02/22 05:53:14;;;;;;;15.55;3.33;;;11.10;70.70;;;;;;5080566;28;20170;-77
2022/02/22 05:55:40;;;;;;;15.20;3.20;;;11.10;70.70;;;;;;5083601;28;20077;-77
2022/02/22 05:58:07;;;;;;;15.15;4.53;;;11.10;71.30;;;;;;5065368;28;20027;-78
2022/02/22 06:00:33;;;;;;;9.82;2.75;;;11.10;70.70;;;;;;5050142;28;20036;-76
2022/02/22 06:02:59;;;;;;;13.65;3.15;;;11.10;70.70;;;;;;5072996;28;20567;-77
2022/02/22 06:05:25;;;;;;;10.52;3.30;;;11.20;70.80;;;;;;5089847;28;20028;-77
2022/02/22 06:07:51;;;;;;;16.42;4.50;;;11.10;70.60;;;;;;5090092;28;20024;-78
2022/02/22 06:10:18;;;;;;;11.88;2.63;;;11.20;70.80;;;;;;5090318;28;20089;-77
2022/02/22 06:12:45;;;;;;;13.98;4.68;;;11.20;70.80;;;;;;5072279;28;20028;-80
2022/02/22 06:15:14;;;;;;;14.65;2.97;;;11.20;70.80;;;;;;5089183;28;20082;-88
2022/02/22 06:17:42;;;;;;;15.70;3.53;;;11.20;70.80;;;;;;5065215;28;20041;-82
2022/02/22 06:20:09;;;;;;;15.93;3.50;;;11.20;70.80;;;;;;5079935;28;20069;-84
2022/02/22 06:22:36;;;;;;;14.63;3.63;;;11.20;70.80;;;;;;5064332;28;20067;-82
2022/02/22 06:25:04;;;;;;;10.75;3.05;;;11.20;70.80;;;;;;5075696;28;20025;-82
2022/02/22 06:27:30;;;;;;;15.55;3.40;;;11.20;70.80;;;;;;5052783;28;20068;-82
2022/02/22 06:29:57;;;;;;;14.75;4.88;;;11.20;70.80;;;;;;5052403;28;20028;-86
2022/02/22 06:32:23;;;;;;;14.20;3.63;;;11.20;70.80;;;;;;5055175;28;20028;-89
2022/02/22 06:34:49;;;;;;;12.63;3.33;;;11.20;70.80;;;;;;5086366;28;20024;-83
2022/02/22 06:37:15;;;;;;;15.65;3.78;;;11.20;70.90;;;;;;5076764;28;20025;-83
2022/02/22 06:39:41;;;;;;;11.07;4.32;;;11.30;71.00;;;;;;5071939;28;20158;-91
2022/02/22 06:42:08;;;;;;;14.73;4.35;;;11.30;71.00;;;;;;5085957;28;20063;-92
2022/02/22 06:44:36;;;;;;;15.93;4.20;;;11.30;71.00;;;;;;5043384;28;20025;-85
2022/02/22 06:47:03;;;;;;;14.45;3.60;;;11.30;71.00;;;;;;5080181;28;20045;-90
2022/02/22 06:49:29;;;;;;;17.08;3.92;;;11.30;70.90;;;;;;5072909;28;20596;-92
2022/02/22 06:51:56;;;;;;;15.63;3.58;;;11.40;71.10;;;;;;5082224;28;20221;-87
2022/02/22 06:54:22;;;;;;;18.83;3.92;;;11.30;70.80;;;;;;5079705;28;20102;-86
2022/02/22 06:56:48;;;;;;;15.43;4.15;;;11.30;70.80;;;;;;5088201;28;20154;-84
2022/02/22 06:59:14;;;;;;;12.57;3.40;;;11.40;71.00;;;;;;5082562;28;20113;-92
2022/02/22 07:01:40;;;;;;;13.68;2.85;;;11.40;71.00;;;;;;5083388;28;20033;-80
2022/02/22 07:04:06;;;;;;;15.10;3.20;;;11.30;71.00;;;;;;5077035;28;20131;-88
2022/02/22 07:06:33;;;;;;;15.20;3.35;;;11.40;70.90;;;;;;5067810;28;20056;-87
2022/02/22 07:08:59;;;;;;;12.27;2.97;;;11.40;70.90;;;;;;5070531;28;20554;-93
2022/02/22 07:11:25;;;;;;;13.60;3.65;;;11.40;71.00;;;;;;5066816;28;20040;-79
2022/02/22 07:13:51;;;;;;;11.85;3.08;;;11.50;71.70;;;;;;5078044;28;20085;-78
2022/02/22 07:16:17;;;;;;;11.65;3.17;;;11.50;71.20;;;;;;5081222;28;20046;-84
2022/02/22 07:18:44;;;;;;;12.30;3.35;;;11.50;71.20;;;;;;5080325;28;20097;-82
2022/02/22 07:21:10;;;;;;;13.68;3.10;;;11.50;71.20;;;;;;5089259;28;20032;-82
2022/02/22 07:23:36;;;;;;;10.05;3.78;;;11.50;71.10;;;;;;5084430;28;20068;-90
2022/02/22 07:26:02;;;;;;;15.57;3.70;;;11.50;71.10;;;;;;5070534;28;20031;-90
2022/02/22 07:28:28;;;;;;;10.82;2.55;;;11.50;71.10;;;;;;5079729;28;20067;-91
2022/02/22 07:30:54;;;;;;;17.42;3.80;;;11.50;71.10;;;;;;5082311;28;20032;-85
2022/02/22 07:33:20;;;;;;;16.17;4.35;;;11.60;71.50;;;;;;5083726;28;20616;-85
2022/02/22 07:35:47;;;;;;;12.90;3.15;;;11.60;71.70;;;;;;5072299;28;20028;-80
2022/02/22 07:38:13;;;;;;;10.60;2.65;;;11.70;72.00;;;;;;5079290;28;20073;-80
2022/02/22 07:40:39;;;;;;;12.98;3.28;;;11.70;72.00;;;;;;5083042;28;20028;-78
2022/02/22 07:43:05;;;;;;;12.68;3.80;;;11.80;72.20;;;;;;5053151;28;20040;-78
2022/02/22 07:45:31;;;;;;;12.43;3.10;;;11.80;72.10;;;;;;5088231;28;20090;-78
2022/02/22 07:47:59;;;;;;;10.18;3.65;;;11.80;72.00;;;;;;5085010;28;20055;-77
2022/02/22 07:50:26;;;;;;;11.88;3.17;;;11.90;72.10;;;;;;5033522;28;20086;-79
2022/02/22 07:52:52;;;;;;;11.00;3.65;;;11.90;72.00;;;;;;5067945;28;20123;-87
2022/02/22 07:55:19;;;;;;;14.77;3.85;;;11.90;71.90;;;;;;5032865;28;20116;-85
2022/02/22 07:57:46;;;;;;;11.98;3.50;;;12.00;71.90;;;;;;5050462;28;20541;-93
2022/02/22 08:00:13;;;;;;;11.77;3.25;;;12.00;71.90;;;;;;5050793;28;20056;-84
2022/02/22 08:02:39;;;;;;;20.48;4.35;;;12.00;71.70;;;;;;5066957;28;20101;-84
2022/02/22 08:05:06;;;;;;;14.38;4.25;;;12.00;71.60;;;;;;5067762;28;20024;-84
2022/02/22 08:07:36;;;;;;;13.55;4.07;;;12.00;71.60;;;;;;5067904;28;20036;-82
2022/02/22 08:10:05;;;;;;;13.52;3.72;;;12.00;71.50;;;;;;5048901;28;20024;-83
2022/02/22 08:12:31;;;;;;;10.93;3.13;;;12.00;71.40;;;;;;5066575;28;20046;-83
2022/02/22 08:14:57;;;;;;;14.30;3.40;;;12.00;71.40;;;;;;5068234;28;20024;-84
2022/02/22 08:17:23;;;;;;;12.35;4.10;;;12.00;71.30;;;;;;5050771;28;20453;-83
2022/02/22 08:19:49;;;;;;;12.50;3.22;;;12.00;71.30;;;;;;5050189;28;20053;-83
2022/02/22 08:22:15;;;;;;;14.63;3.47;;;12.00;71.30;;;;;;5050443;28;20059;-82
2022/02/22 08:24:42;;;;;;;16.02;5.18;;;12.00;71.20;;;;;;5067559;28;20078;-82
2022/02/22 08:27:08;;;;;;;19.25;4.18;;;12.00;71.20;;;;;;5068637;28;20033;-83
2022/02/22 08:29:34;;;;;;;14.70;3.58;;;12.10;71.30;;;;;;5083662;28;20032;-85
2022/02/22 08:32:00;;;;;;;14.80;3.72;;;12.10;71.40;;;;;;5086945;28;20032;-80
2022/02/22 08:34:26;;;;;;;17.80;3.92;;;12.20;72.00;;;;;;5071635;28;20069;-87
2022/02/22 08:36:52;;;;;;;16.60;3.42;;;12.40;72.30;;;;;;5072904;28;20028;-87
2022/02/22 08:39:18;;;;;;;12.38;2.72;;;12.60;72.60;;;;;;5057358;28;20429;-86
2022/02/22 08:41:44;;;;;;;10.52;4.00;;;12.70;72.60;;;;;;5052976;28;20064;-86
2022/02/22 08:44:12;;;;;;;18.17;4.75;;;12.70;72.40;;;;;;5069801;28;20085;-81
2022/02/22 08:46:38;;;;;;;12.38;4.38;;;12.80;72.40;;;;;;5069485;28;20187;-88
2022/02/22 08:49:05;;;;;;;18.25;3.95;;;12.80;72.30;;;;;;5069047;28;20044;-87
2022/02/22 08:51:31;;;;;;;24.63;4.80;;;12.90;72.30;;;;;;5068557;28;20021;-86
2022/02/22 08:53:57;;;;;;;21.10;4.65;;;12.90;72.10;;;;;;5068712;28;20029;-86
2022/02/22 08:56:23;;;;;;;21.50;4.38;;;13.00;72.30;;;;;;5050980;28;20119;-88
2022/02/22 08:58:49;;;;;;;17.15;3.97;;;13.00;72.10;;;;;;5051107;28;20068;-88
2022/02/22 09:01:15;;;;;;;20.58;4.07;;;13.10;72.10;;;;;;5068421;28;20032;-87
2022/02/22 09:03:41;;;;;;;20.35;5.70;;;13.20;72.10;;;;;;5068133;28;20036;-83
2022/02/22 09:06:07;;;;;;;20.77;3.72;;;13.20;71.90;;;;;;5068287;28;20024;-82
2022/02/22 09:08:33;;;;;;;20.60;5.38;;;13.30;71.90;;;;;;5049436;28;20284;-81
2022/02/22 09:11:00;;;;;;;20.63;5.13;;;13.40;71.90;;;;;;5067323;28;20090;-81
2022/02/22 09:13:26;;;;;;;13.65;4.00;;;13.40;71.80;;;;;;5067446;28;20482;-83
2022/02/22 09:15:53;;;;;;;17.30;4.57;;;13.40;71.60;;;;;;5067388;28;20215;-83
2022/02/22 09:18:20;;;;;;;21.77;5.32;;;13.50;71.70;;;;;;5056488;28;20036;-88
2022/02/22 09:20:46;;;;;;;15.75;4.88;;;13.50;71.60;;;;;;5088184;28;20052;-83
2022/02/22 09:23:12;;;;;;;20.98;3.95;;;13.60;71.60;;;;;;5088070;28;20032;-86
2022/02/22 09:25:38;;;;;;;14.52;5.05;;;13.70;71.60;;;;;;5087729;28;20034;-86
2022/02/22 09:28:10;;;;;;;19.27;4.53;;;13.70;71.40;;;;;;5069955;28;20131;-85
2022/02/22 09:30:37;;;;;;;26.20;5.57;;;13.70;71.30;;;;;;5069590;28;20394;-83
2022/02/22 09:33:05;;;;;;;15.35;4.65;;;13.80;71.30;;;;;;5069036;28;20028;-83
2022/02/22 09:35:32;;;;;;;18.15;5.57;;;13.80;71.10;;;;;;5069250;28;20089;-84
2022/02/22 09:37:59;;;;;;;19.60;5.32;;;13.80;71.00;;;;;;5087726;28;20027;-84
2022/02/22 09:40:27;;;;;;;14.80;4.70;;;13.90;71.10;;;;;;5069440;28;20090;-84
2022/02/22 09:42:54;;;;;;;19.42;5.75;;;13.90;71.10;;;;;;5087610;28;20066;-84
2022/02/22 09:45:22;;;;;;;17.75;4.93;;;13.90;71.00;;;;;;5087332;28;20028;-82
2022/02/22 09:47:49;;;;;;;18.33;5.13;;;13.80;70.80;;;;;;5050485;28;20641;-84
2022/02/22 09:50:16;;;;;;;22.92;4.45;;;13.90;71.00;;;;;;5046944;28;20272;-84
2022/02/22 09:52:43;;;;;;;20.50;4.10;;;13.80;70.80;;;;;;5046909;28;20041;-83
2022/02/22 09:55:10;;;;;;;17.63;4.85;;;13.90;70.90;;;;;;5047507;28;20036;-85
2022/02/22 09:57:37;;;;;;;24.20;5.68;;;13.90;70.80;;;;;;5047266;28;20104;-86
2022/02/22 10:00:15;;;;;;;10.15;3.70;;;13.90;70.80;;;;;;5027758;28;20067;-85
2022/02/22 10:02:41;;;;;;;12.77;4.75;;;13.90;70.80;;;;;;5026338;28;20056;-86
2022/02/22 10:05:27;;;;;;;20.92;6.40;;;13.90;70.70;;;;;;5031680;28;20029;-93
2022/02/22 10:07:59;;;;;;;18.48;4.32;;;13.90;70.70;;;;;;5036444;28;20931;-93
2022/02/22 10:10:39;;;;;;;15.60;4.30;;;13.90;70.70;;;;;;5032940;28;20026;-92
2022/02/22 10:13:07;;;;;;;20.35;4.30;;;13.90;70.70;;;;;;5030642;28;20030;-91
2022/02/22 10:15:42;;;;;;;22.27;4.90;;;13.90;70.70;;;;;;5030545;28;20029;-91
2022/02/22 10:18:09;;;;;;;17.90;5.15;;;13.90;70.70;;;;;;5032241;28;20080;-91
2022/02/22 10:20:36;;;;;;;21.05;5.57;;;13.80;70.50;;;;;;5032320;28;20029;-91
2022/02/22 10:23:04;;;;;;;21.60;4.80;;;13.90;70.70;;;;;;5031825;28;20117;-91
2022/02/22 10:25:30;;;;;;;29.58;7.53;;;13.90;70.70;;;;;;5032801;28;20049;-92
2022/02/22 10:27:58;;;;;;;17.67;5.07;;;13.80;70.50;;;;;;5032752;28;20040;-91
2022/02/22 10:30:26;;;;;;;23.48;5.28;;;13.80;70.50;;;;;;5030843;28;20101;-81
2022/02/22 10:32:53;;;;;;;23.95;5.43;;;13.80;70.60;;;;;;5028807;28;20362;-82
2022/02/22 10:35:27;;;;;;;28.48;5.80;;;13.70;70.50;;;;;;5029921;28;20358;-81
2022/02/22 10:37:54;;;;;;;22.02;6.82;;;13.80;70.70;;;;;;5029650;28;20025;-81
2022/02/22 10:40:29;;;;;;;22.48;6.32;;;13.70;70.70;;;;;;5029240;28;20040;-80
2022/02/22 10:42:56;;;;;;;19.70;6.22;;;13.70;70.80;;;;;;5028079;28;20136;-80
2022/02/22 10:45:23;;;;;;;20.73;8.40;;;13.70;70.80;;;;;;5028389;28;20071;-80
2022/02/22 10:47:50;;;;;;;22.90;5.82;;;13.70;70.90;;;;;;5060762;28;20206;-80
2022/02/22 10:50:24;;;;;;;18.15;4.30;;;13.70;70.90;;;;;;5052074;28;20028;-82
2022/02/22 10:52:50;;;;;;;19.70;4.82;;;13.70;70.90;;;;;;5069793;28;20025;-84
2022/02/22 10:55:17;;;;;;;17.73;5.10;;;13.70;71.00;;;;;;5052362;28;20847;-85
2022/02/22 10:57:45;;;;;;;25.25;5.93;;;13.70;70.90;;;;;;5070013;28;20527;-87
2022/02/22 11:00:13;;;;;;;29.60;8.10;;;13.70;71.00;;;;;;5070582;28;20081;-87
2022/02/22 11:02:39;;;;;;;14.65;4.65;;;13.70;71.00;;;;;;5070767;28;20393;-89
2022/02/22 11:05:06;;;;;;;16.00;3.80;;;13.70;71.10;;;;;;5070449;28;20199;-88
2022/02/22 11:07:32;;;;;;;20.52;4.57;;;13.70;71.20;;;;;;5070376;28;20032;-87
2022/02/22 11:09:59;;;;;;;23.77;5.57;;;13.70;71.20;;;;;;5072018;28;20298;-88
2022/02/22 11:12:34;;;;;;;14.57;4.43;;;13.80;71.40;;;;;;5072127;28;20035;-86
2022/02/22 11:15:11;;;;;;;19.35;4.60;;;13.80;71.30;;;;;;5072672;28;20040;-87
2022/02/22 11:17:54;;;;;;;15.00;5.43;;;13.80;71.30;;;;;;5072229;28;20383;-91
2022/02/22 11:20:29;;;;;;;16.88;4.85;;;13.90;71.40;;;;;;5051171;28;20028;-91
2022/02/22 11:23:01;;;;;;;17.27;4.20;;;13.90;71.30;;;;;;5070611;28;20040;-88
2022/02/22 11:25:34;;;;;;;18.92;4.97;;;13.90;71.30;;;;;;5070864;28;20039;-89
2022/02/22 11:28:04;;;;;;;26.25;5.50;;;14.00;71.30;;;;;;5073736;28;20036;-90
2022/02/22 11:30:31;;;;;;;24.27;6.93;;;14.00;71.20;;;;;;5072791;28;20036;-91
2022/02/22 11:33:01;;;;;;;25.35;5.90;;;14.10;71.30;;;;;;5091385;28;20031;-89
2022/02/22 11:35:28;;;;;;;15.73;5.15;;;14.10;71.30;;;;;;5071893;28;20028;-87
2022/02/22 11:38:09;;;;;;;16.00;4.88;;;14.10;71.20;;;;;;5089512;28;20028;-86
2022/02/22 11:40:35;;;;;;;23.42;6.55;;;14.10;71.20;;;;;;5089901;28;20039;-93
2022/02/22 11:43:15;;;;;;;25.77;6.78;;;14.10;71.20;;;;;;5072923;28;20063;-90
2022/02/22 11:45:50;;;;;;;21.15;5.78;;;14.20;71.40;;;;;;5073029;28;20052;-88
2022/02/22 11:48:21;;;;;;;24.40;5.60;;;14.20;71.20;;;;;;5071228;28;20157;-90
2022/02/22 11:50:53;;;;;;;16.02;3.83;;;14.30;71.40;;;;;;5073376;28;20039;-90
2022/02/22 11:53:29;;;;;;;23.55;4.68;;;14.40;71.70;;;;;;5074701;28;20051;-94
2022/02/22 11:55:57;;;;;;;19.75;5.80;;;14.40;71.70;;;;;;5074014;28;20019;-91
2022/02/22 11:58:26;;;;;;;22.50;6.03;;;14.60;71.90;;;;;;5090544;28;20028;-93
2022/02/22 12:00:55;;;;;;;13.15;4.10;;;14.70;71.80;;;;;;5072585;28;20085;-88
2022/02/22 12:03:23;;;;;;;21.38;5.15;;;14.80;71.70;;;;;;5091450;28;20739;-88
2022/02/22 12:06:00;;;;;;;19.48;5.63;;;15.00;71.80;;;;;;5091284;28;20101;-87
2022/02/22 12:08:33;;;;;;;22.23;5.13;;;15.10;71.60;;;;;;5090745;28;20043;-89
2022/02/22 12:11:02;;;;;;;16.70;5.65;;;15.20;71.50;;;;;;5090719;28;20066;-83
2022/02/22 12:13:41;;;;;;;25.48;7.13;;;15.30;71.50;;;;;;5090149;28;20042;-87
2022/02/22 12:16:19;;;;;;;14.07;3.80;;;15.30;71.50;;;;;;5090887;28;20505;-90
2022/02/22 12:18:49;;;;;;;16.25;4.63;;;15.40;71.50;;;;;;5065130;28;20053;-95
2022/02/22 12:21:19;;;;;;;22.83;4.97;;;15.50;71.40;;;;;;5054989;28;20070;-92
2022/02/22 12:23:46;;;;;;;15.63;4.40;;;15.60;71.30;;;;;;5054656;28;20616;-93
2022/02/22 12:26:15;;;;;;;15.48;4.03;;;15.60;71.20;;;;;;5071802;28;20028;-92
2022/02/22 12:28:50;;;;;;;12.48;4.78;;;15.70;71.20;;;;;;5052424;28;20479;-92
2022/02/22 12:31:36;;;;;;;14.80;4.55;;;15.70;71.00;;;;;;5055876;28;20021;-87
2022/02/22 12:34:11;;;;;;;12.15;4.20;;;15.70;70.90;;;;;;5069670;28;20032;-85
2022/02/22 12:36:40;;;;;;;9.75;3.47;;;15.70;70.80;;;;;;5051208;28;20036;-81
2022/02/22 12:39:09;;;;;;;9.82;2.65;;;15.70;70.60;;;;;;5067408;28;20033;-80
2022/02/22 12:41:37;;;;;;;10.18;3.10;;;15.70;70.50;;;;;;5068407;28;20032;-80